createdAt,value
2023-04-26T00:00:31.756Z,4.53
2023-04-26T00:03:02.337Z,4.49
2023-04-26T00:05:32.480Z,4.46
2023-04-26T00:08:01.963Z,4.46
2023-04-26T00:10:31.024Z,4.20
2023-04-26T00:13:00.223Z,4.37
2023-04-26T00:15:29.543Z,4.36
2023-04-26T00:17:58.751Z,4.40
2023-04-26T00:20:30.210Z,3.80
2023-04-26T00:22:59.310Z,4.28
2023-04-26T00:25:28.384Z,4.26
2023-04-26T00:27:57.434Z,4.27
2023-04-26T00:30:26.644Z,4.17
2023-04-26T00:32:55.636Z,4.37
2023-04-26T00:35:25.033Z,4.41
2023-04-26T00:37:57.793Z,4.39
2023-04-26T00:40:27.117Z,4.38
2023-04-26T00:42:59.470Z,4.38
2023-04-26T00:45:28.741Z,4.49
2023-04-26T00:47:57.952Z,3.78
2023-04-26T00:50:27.423Z,4.45
2023-04-26T00:52:58.871Z,4.34
2023-04-26T00:55:28.421Z,4.23
2023-04-26T00:57:57.948Z,4.16
2023-04-26T01:00:27.798Z,4.11
2023-04-26T01:02:57.164Z,4.08
2023-04-26T01:05:26.473Z,4.07
2023-04-26T01:07:55.967Z,4.09
2023-04-26T01:10:28.307Z,4.15
2023-04-26T01:13:03.192Z,4.15
2023-04-26T01:15:33.640Z,4.11
2023-04-26T01:18:03.579Z,4.08
2023-04-26T01:20:32.725Z,4.04
2023-04-26T01:23:06.268Z,3.92
2023-04-26T01:25:35.925Z,3.94
2023-04-26T01:28:07.396Z,4.08
2023-04-26T01:30:38.728Z,3.12
2023-04-26T01:38:02.670Z,3.81
2023-04-26T01:40:34.418Z,3.97
2023-04-26T01:43:04.568Z,3.10
2023-04-26T01:45:34.295Z,3.93
2023-04-26T01:48:22.627Z,3.89
2023-04-26T01:50:51.817Z,3.90
2023-04-26T01:53:22.183Z,3.97
2023-04-26T01:55:55.635Z,3.92
2023-04-26T01:58:25.370Z,3.90
2023-04-26T02:00:55.640Z,3.93
2023-04-26T02:03:25.428Z,3.94
2023-04-26T02:05:54.297Z,3.83
2023-04-26T02:08:23.006Z,3.86
2023-04-26T02:10:53.436Z,3.91
2023-04-26T02:13:22.669Z,3.97
2023-04-26T02:15:54.025Z,3.97
2023-04-26T02:18:22.896Z,3.86
2023-04-26T02:25:58.077Z,3.51
2023-04-26T02:28:26.950Z,3.71
2023-04-26T02:30:58.558Z,3.93
2023-04-26T02:33:29.609Z,3.82
2023-04-26T02:35:59.263Z,3.79
2023-04-26T02:38:28.202Z,3.74
2023-04-26T02:41:01.029Z,3.80
2023-04-26T02:43:30.218Z,3.66
2023-04-26T02:46:01.250Z,3.71
2023-04-26T02:48:33.143Z,3.79
2023-04-26T02:51:02.761Z,3.81
2023-04-26T02:53:33.722Z,3.87
2023-04-26T02:56:07.284Z,3.70
2023-04-26T02:58:36.212Z,3.88
2023-04-26T03:01:05.984Z,3.74
2023-04-26T03:03:35.254Z,3.52
2023-04-26T03:06:04.528Z,3.62
2023-04-26T03:08:35.109Z,3.75
2023-04-26T03:11:04.790Z,3.60
2023-04-26T03:13:40.917Z,3.48
2023-04-26T03:16:11.161Z,3.51
2023-04-26T03:18:43.279Z,3.45
2023-04-26T03:21:13.203Z,3.56
2023-04-26T03:23:42.516Z,3.53
2023-04-26T03:26:12.658Z,2.86
2023-04-26T03:28:43.338Z,3.57
2023-04-26T03:31:12.615Z,3.46
2023-04-26T03:33:42.791Z,3.72
2023-04-26T03:36:12.702Z,3.61
2023-04-26T03:38:42.919Z,3.77
2023-04-26T03:41:15.703Z,3.72
2023-04-26T03:43:45.930Z,3.53
2023-04-26T03:46:15.032Z,3.58
2023-04-26T03:48:43.786Z,3.62
2023-04-26T03:51:12.834Z,3.69
2023-04-26T03:53:42.612Z,3.45
2023-04-26T03:56:13.784Z,3.63
2023-04-26T03:58:43.047Z,3.55
2023-04-26T04:01:15.770Z,3.48
2023-04-26T04:03:44.929Z,3.47
2023-04-26T04:06:19.449Z,3.36
2023-04-26T04:08:48.151Z,3.51
2023-04-26T04:11:17.653Z,3.36
2023-04-26T04:13:47.359Z,3.34
2023-04-26T04:16:18.588Z,3.35
2023-04-26T04:18:47.564Z,3.23
2023-04-26T04:21:16.592Z,3.18
2023-04-26T04:23:45.848Z,3.04
2023-04-26T04:26:15.241Z,3.05
2023-04-26T04:28:45.150Z,3.03
2023-04-26T04:31:14.046Z,3.00
2023-04-26T04:33:44.512Z,3.03
2023-04-26T04:36:17.941Z,3.12
2023-04-26T04:38:48.046Z,3.13
2023-04-26T04:41:20.365Z,3.21
2023-04-26T04:43:49.228Z,3.31
2023-04-26T04:46:18.033Z,3.42
2023-04-26T04:48:48.632Z,3.52
2023-04-26T04:51:17.470Z,3.59
2023-04-26T04:53:49.574Z,3.84
2023-04-26T04:56:19.580Z,4.26
2023-04-26T04:58:48.380Z,4.34
2023-04-26T05:01:20.381Z,4.33
2023-04-26T05:03:54.896Z,4.27
2023-04-26T05:06:24.576Z,4.29
2023-04-26T05:08:53.305Z,4.28
2023-04-26T05:11:22.603Z,3.86
2023-04-26T05:13:52.826Z,3.90
2023-04-26T05:16:22.723Z,3.87
2023-04-26T05:18:51.639Z,3.87
2023-04-26T05:21:23.330Z,3.78
2023-04-26T05:23:53.538Z,3.84
2023-04-26T05:26:22.662Z,3.82
2023-04-26T05:29:16.908Z,3.88
2023-04-26T05:31:48.807Z,4.05
2023-04-26T05:34:56.498Z,4.02
2023-04-26T05:37:26.863Z,4.03
2023-04-26T05:39:57.074Z,4.06
2023-04-26T05:42:26.188Z,4.10
2023-04-26T05:44:58.637Z,4.15
2023-04-26T05:47:27.968Z,4.19
2023-04-26T05:49:57.582Z,4.23
2023-04-26T05:52:28.613Z,4.27
2023-04-26T05:54:57.548Z,4.34
2023-04-26T05:57:27.855Z,4.38
2023-04-26T05:59:56.910Z,4.47
2023-04-26T06:02:26.925Z,4.56
2023-04-26T06:04:56.268Z,4.63
2023-04-26T06:07:29.780Z,4.76
2023-04-26T06:09:58.799Z,4.80
2023-04-26T06:12:30.316Z,4.81
2023-04-26T06:15:01.241Z,4.87
2023-04-26T06:17:34.055Z,4.84
2023-04-26T06:20:03.166Z,4.96
2023-04-26T06:22:35.503Z,5.00
2023-04-26T06:25:05.026Z,5.12
2023-04-26T06:27:35.236Z,5.23
2023-04-26T06:30:04.607Z,5.14
2023-04-26T06:32:36.471Z,5.29
2023-04-26T06:35:06.648Z,5.44
2023-04-26T06:37:37.317Z,5.43
2023-04-26T06:40:07.346Z,4.97
2023-04-26T06:42:38.252Z,5.63
2023-04-26T06:45:21.104Z,5.89
2023-04-26T06:47:52.411Z,5.87
2023-04-26T06:50:21.675Z,6.00
2023-04-26T06:52:51.751Z,6.06
2023-04-26T06:55:20.746Z,6.07
2023-04-26T06:57:49.403Z,5.11
2023-04-26T07:00:19.116Z,6.09
2023-04-26T07:02:47.977Z,6.12
2023-04-26T07:05:16.895Z,6.20
2023-04-26T07:07:45.718Z,6.30
2023-04-26T07:10:18.476Z,6.37
2023-04-26T07:12:47.174Z,6.59
2023-04-26T07:15:15.761Z,6.58
2023-04-26T07:17:45.456Z,6.63
2023-04-26T07:20:15.720Z,6.76
2023-04-26T07:22:44.471Z,6.98
2023-04-26T07:25:15.932Z,6.84
2023-04-26T07:27:46.044Z,6.80
2023-04-26T07:30:15.082Z,6.92
2023-04-26T07:32:43.769Z,7.05
2023-04-26T07:35:16.400Z,7.14
2023-04-26T07:37:45.507Z,7.21
2023-04-26T07:40:15.320Z,7.40
2023-04-26T07:42:45.725Z,7.54
2023-04-26T07:45:17.030Z,7.66
2023-04-26T07:47:47.904Z,7.74
2023-04-26T07:50:16.792Z,7.67
2023-04-26T07:52:45.457Z,7.63
2023-04-26T07:55:14.950Z,7.49
2023-04-26T07:57:46.757Z,7.70
2023-04-26T08:00:18.978Z,8.06
2023-04-26T08:02:53.322Z,7.95
2023-04-26T08:05:22.945Z,7.54
2023-04-26T08:07:54.121Z,7.43
2023-04-26T08:10:25.315Z,7.74
2023-04-26T08:12:57.368Z,7.58
2023-04-26T08:15:26.188Z,7.03
2023-04-26T08:17:54.817Z,7.09
2023-04-26T08:20:23.826Z,7.21
2023-04-26T08:22:56.916Z,7.15
2023-04-26T08:25:26.132Z,7.10
2023-04-26T08:27:58.733Z,7.21
2023-04-26T08:30:27.632Z,7.21
2023-04-26T08:32:56.661Z,7.43
2023-04-26T08:35:25.385Z,7.25
2023-04-26T08:37:56.443Z,7.28
2023-04-26T08:40:26.247Z,7.74
2023-04-26T08:42:54.997Z,7.36
2023-04-26T08:45:26.091Z,7.69
2023-04-26T08:47:58.692Z,7.45
2023-04-26T08:50:33.594Z,7.36
2023-04-26T08:53:02.658Z,7.41
2023-04-26T08:55:35.025Z,7.20
2023-04-26T08:58:04.812Z,7.66
2023-04-26T09:00:35.575Z,7.58
2023-04-26T09:03:04.671Z,7.66
2023-04-26T09:05:35.464Z,7.85
2023-04-26T09:08:07.957Z,7.86
2023-04-26T09:10:36.718Z,8.22
2023-04-26T09:13:05.985Z,8.35
2023-04-26T09:15:36.375Z,7.90
2023-04-26T09:18:20.582Z,7.68
2023-04-26T09:21:06.048Z,7.65
2023-04-26T09:23:35.684Z,7.63
2023-04-26T09:26:17.878Z,7.66
2023-04-26T09:28:47.652Z,8.38
2023-04-26T09:31:38.935Z,8.13
2023-04-26T09:34:08.797Z,8.05
2023-04-26T09:36:51.294Z,8.33
2023-04-26T09:39:32.878Z,8.38
2023-04-26T09:42:02.042Z,8.45
2023-04-26T09:44:33.606Z,8.36
2023-04-26T09:47:06.161Z,8.44
2023-04-26T09:49:45.394Z,8.77
2023-04-26T09:52:14.552Z,8.82
2023-04-26T09:54:48.376Z,8.57
2023-04-26T09:57:18.179Z,8.57
2023-04-26T09:59:48.228Z,8.58
2023-04-26T10:02:21.038Z,7.99
2023-04-26T10:04:51.535Z,8.48
2023-04-26T10:07:21.462Z,8.26
2023-04-26T10:09:51.130Z,7.62
2023-04-26T10:12:22.108Z,8.21
2023-04-26T10:14:50.886Z,8.12
2023-04-26T10:17:23.445Z,8.12
2023-04-26T10:19:56.555Z,8.30
2023-04-26T10:22:33.628Z,8.34
2023-04-26T10:25:02.606Z,8.36
2023-04-26T10:27:51.145Z,8.90
2023-04-26T10:30:24.703Z,9.57
2023-04-26T10:33:19.045Z,10.16
2023-04-26T10:36:11.061Z,10.33
2023-04-26T10:38:41.695Z,10.18
2023-04-26T10:41:33.128Z,10.39
2023-04-26T10:48:57.392Z,10.45
2023-04-26T10:51:27.281Z,10.49
2023-04-26T10:54:04.123Z,10.73
2023-04-26T10:56:52.382Z,10.86
2023-04-26T10:59:39.894Z,10.75
2023-04-26T11:02:12.125Z,10.50
2023-04-26T11:04:54.910Z,10.33
2023-04-26T11:07:38.411Z,10.57
2023-04-26T11:10:10.904Z,10.01
2023-04-26T11:12:43.392Z,9.94
2023-04-26T11:15:14.325Z,10.04
2023-04-26T11:17:43.600Z,9.88
2023-04-26T11:20:17.608Z,9.37
2023-04-26T11:22:46.568Z,9.68
2023-04-26T11:25:16.253Z,9.30
2023-04-26T11:27:45.032Z,9.21
2023-04-26T11:30:14.529Z,9.24
2023-04-26T11:32:47.366Z,9.33
2023-04-26T11:35:17.557Z,9.21
2023-04-26T11:37:47.001Z,9.55
2023-04-26T11:40:21.755Z,9.40
2023-04-26T11:42:50.458Z,9.39
2023-04-26T11:45:19.183Z,9.20
2023-04-26T11:47:51.640Z,9.45
2023-04-26T11:50:26.733Z,9.68
2023-04-26T11:52:57.036Z,9.01
2023-04-26T11:55:28.571Z,9.80
2023-04-26T11:57:58.427Z,10.24
2023-04-26T12:00:27.986Z,10.32
2023-04-26T12:02:57.593Z,10.40
2023-04-26T12:09:57.703Z,10.01
2023-04-26T12:12:27.377Z,10.13
2023-04-26T12:14:56.205Z,9.97
2023-04-26T12:17:29.620Z,10.69
2023-04-26T12:19:58.826Z,10.31
2023-04-26T12:22:27.946Z,9.97
2023-04-26T12:25:08.263Z,10.36
2023-04-26T12:27:37.678Z,9.48
2023-04-26T12:30:08.588Z,9.99
2023-04-26T12:32:38.062Z,9.80
2023-04-26T12:35:08.175Z,9.98
2023-04-26T12:37:37.900Z,9.99
2023-04-26T12:40:10.505Z,9.84
2023-04-26T12:42:39.780Z,10.14
2023-04-26T12:45:09.797Z,10.46
2023-04-26T12:47:39.076Z,10.17
2023-04-26T12:50:12.833Z,9.70
2023-04-26T12:52:46.030Z,10.22
2023-04-26T12:55:17.133Z,9.98
2023-04-26T12:57:47.995Z,10.09
2023-04-26T13:00:18.210Z,10.04
2023-04-26T13:02:47.541Z,10.22
2023-04-26T13:05:18.794Z,10.30
2023-04-26T13:07:48.107Z,10.20
2023-04-26T13:10:18.726Z,10.21
2023-04-26T13:12:47.518Z,10.29
2023-04-26T13:16:41.824Z,10.17
2023-04-26T13:19:42.915Z,9.97
2023-04-26T13:22:13.600Z,9.76
2023-04-26T13:24:45.162Z,9.97
2023-04-26T13:27:18.684Z,10.26
2023-04-26T13:29:47.673Z,10.50
2023-04-26T13:32:17.723Z,10.36
2023-04-26T13:34:47.864Z,10.40
2023-04-26T13:37:20.305Z,10.59
2023-04-26T13:39:49.523Z,10.92
2023-04-26T13:42:19.928Z,11.24
2023-04-26T13:44:49.089Z,11.62
2023-04-26T13:47:20.834Z,11.62
2023-04-26T13:49:49.755Z,11.45
2023-04-26T13:52:19.749Z,10.73
2023-04-26T13:54:49.179Z,11.08
2023-04-26T13:57:19.620Z,10.73
2023-04-26T13:59:49.474Z,10.98
2023-04-26T14:02:18.346Z,11.18
2023-04-26T14:04:47.500Z,11.36
2023-04-26T14:07:17.193Z,11.40
2023-04-26T14:09:48.209Z,11.34
2023-04-26T14:12:17.064Z,11.30
2023-04-26T14:14:49.595Z,11.10
2023-04-26T14:17:18.673Z,11.28
2023-04-26T14:19:47.336Z,10.81
2023-04-26T14:22:17.774Z,11.03
2023-04-26T14:24:46.781Z,11.23
2023-04-26T14:27:15.646Z,11.00
2023-04-26T14:29:44.612Z,11.16
2023-04-26T14:32:15.174Z,11.18
2023-04-26T14:34:44.127Z,11.00
2023-04-26T14:37:13.077Z,11.10
2023-04-26T14:39:44.231Z,10.81
2023-04-26T14:42:15.139Z,10.80
2023-04-26T14:44:45.605Z,10.96
2023-04-26T14:47:15.702Z,10.82
2023-04-26T14:49:44.414Z,11.25
2023-04-26T14:52:13.142Z,11.14
2023-04-26T14:54:42.596Z,10.99
2023-04-26T14:57:13.399Z,11.28
2023-04-26T14:59:42.539Z,11.04
2023-04-26T15:02:11.269Z,11.05
2023-04-26T15:04:41.586Z,10.58
2023-04-26T15:07:17.992Z,11.12
2023-04-26T15:09:59.714Z,10.99
2023-04-26T15:12:28.608Z,11.00
2023-04-26T15:14:59.412Z,10.79
2023-04-26T15:17:29.354Z,11.03
2023-04-26T15:20:01.949Z,10.96
2023-04-26T15:22:31.326Z,10.89
2023-04-26T15:25:00.174Z,11.04
2023-04-26T15:27:28.964Z,10.85
2023-04-26T15:30:00.282Z,11.00
2023-04-26T15:32:32.400Z,10.66
2023-04-26T15:35:02.795Z,10.70
2023-04-26T15:37:31.635Z,10.50
2023-04-26T15:40:00.414Z,10.47
2023-04-26T15:42:34.056Z,10.12
2023-04-26T15:45:02.832Z,10.08
2023-04-26T15:47:31.654Z,10.34
2023-04-26T15:50:04.784Z,10.31
2023-04-26T15:52:38.830Z,10.25
2023-04-26T15:55:08.600Z,9.48
2023-04-26T15:57:37.732Z,10.39
2023-04-26T16:00:09.745Z,10.63
2023-04-26T16:02:38.615Z,10.78
2023-04-26T16:05:09.529Z,9.89
2023-04-26T16:07:39.099Z,10.49
2023-04-26T16:10:11.701Z,10.14
2023-04-26T16:12:41.799Z,10.20
2023-04-26T16:15:11.738Z,10.22
2023-04-26T16:17:40.529Z,10.21
2023-04-26T16:20:11.780Z,9.38
2023-04-26T16:22:40.533Z,9.87
2023-04-26T16:25:13.078Z,9.97
2023-04-26T16:27:41.815Z,9.90
2023-04-26T16:30:11.319Z,10.19
2023-04-26T16:32:40.296Z,10.06
2023-04-26T16:35:11.229Z,9.98
2023-04-26T16:37:44.360Z,10.11
2023-04-26T16:40:14.130Z,10.08
2023-04-26T16:42:43.521Z,9.90
2023-04-26T16:45:16.123Z,9.87
2023-04-26T16:47:47.952Z,10.03
2023-04-26T16:50:18.325Z,10.04
2023-04-26T16:52:47.114Z,9.92
2023-04-26T16:55:18.734Z,9.95
2023-04-26T17:02:40.516Z,9.57
2023-04-26T17:05:10.907Z,9.55
2023-04-26T17:07:41.484Z,9.48
2023-04-26T17:10:11.044Z,9.06
2023-04-26T17:12:42.010Z,8.92
2023-04-26T17:15:13.163Z,9.00
2023-04-26T17:17:42.148Z,8.99
2023-04-26T17:20:13.617Z,8.95
2023-04-26T17:22:44.065Z,9.06
2023-04-26T17:25:13.186Z,9.21
2023-04-26T17:27:42.119Z,9.09
2023-04-26T17:30:11.720Z,8.75
2023-04-26T17:32:40.615Z,8.68
2023-04-26T17:35:10.041Z,8.58
2023-04-26T17:37:42.406Z,8.50
2023-04-26T17:40:13.320Z,8.73
2023-04-26T17:42:44.282Z,8.89
2023-04-26T17:45:14.221Z,8.07
2023-04-26T17:47:44.928Z,8.97
2023-04-26T17:50:16.576Z,8.87
2023-04-26T17:52:45.933Z,8.09
2023-04-26T17:55:16.287Z,8.75
2023-04-26T17:57:45.001Z,8.35
2023-04-26T18:00:14.990Z,8.34
2023-04-26T18:02:44.668Z,8.22
2023-04-26T18:05:13.530Z,8.29
2023-04-26T18:07:42.243Z,8.24
2023-04-26T18:10:11.640Z,8.33
2023-04-26T18:12:41.858Z,8.35
2023-04-26T18:15:10.973Z,8.40
2023-04-26T18:17:39.690Z,8.66
2023-04-26T18:20:09.560Z,8.50
2023-04-26T18:22:38.279Z,8.41
2023-04-26T18:25:10.126Z,8.48
2023-04-26T18:27:38.904Z,8.31
2023-04-26T18:30:12.841Z,8.34
2023-04-26T18:32:44.008Z,8.11
2023-04-26T18:35:15.220Z,7.95
2023-04-26T18:37:44.093Z,7.88
2023-04-26T18:40:13.685Z,8.07
2023-04-26T18:42:45.249Z,8.05
2023-04-26T18:45:15.860Z,8.03
2023-04-26T18:47:44.740Z,7.93
2023-04-26T18:50:13.909Z,8.02
2023-04-26T18:52:42.632Z,8.03
2023-04-26T18:55:11.338Z,8.17
2023-04-26T18:57:40.680Z,7.93
2023-04-26T19:00:10.754Z,7.99
2023-04-26T19:02:44.073Z,7.97
2023-04-26T19:05:14.141Z,7.70
2023-04-26T19:07:43.166Z,7.69
2023-04-26T19:10:12.469Z,7.74
2023-04-26T19:12:43.629Z,7.71
2023-04-26T19:15:13.359Z,7.78
2023-04-26T19:17:43.665Z,7.80
2023-04-26T19:20:13.994Z,7.68
2023-04-26T19:22:44.667Z,7.67
2023-04-26T19:25:14.331Z,7.69
2023-04-26T19:27:43.411Z,7.64
2023-04-26T19:30:13.507Z,7.65
2023-04-26T19:32:44.381Z,7.68
2023-04-26T19:35:13.247Z,7.71
2023-04-26T19:37:42.166Z,7.67
2023-04-26T19:40:12.064Z,7.65
2023-04-26T19:42:41.107Z,7.56
2023-04-26T19:45:14.734Z,7.54
2023-04-26T19:47:47.639Z,7.48
2023-04-26T19:50:16.444Z,7.51
2023-04-26T19:52:45.504Z,7.44
2023-04-26T19:55:15.006Z,7.43
2023-04-26T19:57:43.703Z,7.43
2023-04-26T20:00:13.432Z,7.30
2023-04-26T20:02:42.488Z,7.35
2023-04-26T20:05:12.925Z,6.66
2023-04-26T20:07:41.840Z,7.31
2023-04-26T20:10:11.216Z,7.07
2023-04-26T20:12:40.549Z,7.21
2023-04-26T20:15:12.117Z,6.91
2023-04-26T20:17:41.382Z,6.97
2023-04-26T20:20:12.743Z,6.94
2023-04-26T20:22:41.963Z,6.95
2023-04-26T20:25:11.141Z,6.83
2023-04-26T20:27:39.906Z,6.33
2023-04-26T20:30:09.927Z,6.80
2023-04-26T20:32:38.721Z,6.78
2023-04-26T20:35:08.535Z,6.77
2023-04-26T20:37:38.709Z,6.76
2023-04-26T20:40:09.374Z,6.74
2023-04-26T20:42:40.901Z,6.72
2023-04-26T20:45:11.028Z,6.83
2023-04-26T20:47:44.692Z,6.72
2023-04-26T20:50:13.547Z,6.69
2023-04-26T20:52:43.659Z,6.65
2023-04-26T20:55:12.456Z,6.60
2023-04-26T20:57:41.863Z,6.59
2023-04-26T21:00:11.594Z,6.55
2023-04-26T21:02:41.082Z,6.55
2023-04-26T21:05:10.933Z,6.55
2023-04-26T21:07:39.647Z,6.55
2023-04-26T21:10:11.027Z,6.57
2023-04-26T21:12:41.757Z,6.57
2023-04-26T21:15:11.425Z,6.51
2023-04-26T21:17:41.048Z,6.47
2023-04-26T21:20:11.871Z,6.44
2023-04-26T21:22:40.935Z,6.42
2023-04-26T21:25:13.719Z,6.37
2023-04-26T21:27:42.476Z,6.33
2023-04-26T21:30:12.468Z,6.26
2023-04-26T21:32:41.904Z,6.19
2023-04-26T21:35:11.507Z,6.13
2023-04-26T21:37:40.282Z,6.13
2023-04-26T21:40:11.775Z,6.10
2023-04-26T21:42:40.704Z,6.10
2023-04-26T21:45:11.407Z,6.08
2023-04-26T21:47:40.176Z,6.04
2023-04-26T21:50:14.233Z,6.06
2023-04-26T21:52:43.107Z,6.05
2023-04-26T21:55:14.441Z,6.06
2023-04-26T21:57:45.922Z,5.87
2023-04-26T22:00:15.244Z,6.01
2023-04-26T22:02:44.350Z,4.84
2023-04-26T22:05:14.418Z,5.98
2023-04-26T22:07:43.978Z,5.81
2023-04-26T22:10:16.970Z,5.77
2023-04-26T22:12:49.740Z,5.82
2023-04-26T22:15:20.124Z,5.80
2023-04-26T22:17:49.462Z,5.80
2023-04-26T22:20:19.127Z,5.76
2023-04-26T22:22:49.056Z,5.73
2023-04-26T22:25:20.658Z,5.68
2023-04-26T22:27:51.043Z,5.57
2023-04-26T22:30:26.030Z,5.61
2023-04-26T22:32:59.898Z,5.57
2023-04-26T22:35:30.722Z,5.46
2023-04-26T22:38:37.614Z,5.40
2023-04-26T22:41:07.778Z,5.42
2023-04-26T22:43:36.699Z,5.41
2023-04-26T22:46:07.771Z,5.40
2023-04-26T22:48:36.531Z,5.40
2023-04-26T22:51:05.431Z,5.36
2023-04-26T22:53:34.260Z,5.29
2023-04-26T22:56:03.143Z,5.35
2023-04-26T22:58:33.259Z,5.33
2023-04-26T23:01:02.049Z,5.33
2023-04-26T23:03:31.090Z,5.35
2023-04-26T23:05:59.931Z,5.36
2023-04-26T23:08:28.715Z,5.16
2023-04-26T23:10:57.535Z,5.23
2023-04-26T23:13:26.658Z,5.15
2023-04-26T23:15:57.064Z,5.15
2023-04-26T23:18:26.650Z,5.09
2023-04-26T23:20:57.615Z,5.10
2023-04-26T23:23:26.364Z,4.34
2023-04-26T23:25:55.195Z,5.02
2023-04-26T23:28:23.941Z,4.94
2023-04-26T23:30:52.727Z,4.93
2023-04-26T23:33:25.475Z,4.91
2023-04-26T23:35:56.026Z,4.88
2023-04-26T23:38:24.667Z,4.84
2023-04-26T23:40:53.373Z,4.82
2023-04-26T23:43:22.089Z,4.74
2023-04-26T23:45:50.804Z,4.62
2023-04-26T23:48:19.537Z,4.72
2023-04-26T23:50:49.589Z,4.61
2023-04-26T23:53:18.323Z,4.74
2023-04-26T23:55:47.378Z,4.74
2023-04-26T23:58:16.157Z,4.71
